Time;durP1;ratioP1;P1;durP2;ratioP2;P2;SDS_P1;SDS_P2;PMS_P1;PMS_P2;Temp;Humidity;BMP_temperature;BMP_pressure;BME280_temperature;BME280_humidity;BME280_pressure;Samples;Min_cycle;Max_cycle;Signal;HPM_P1;HPM_P2
2023/07/11 00:01:54;;;;;;;8.98;6.43;;;15.70;99.90;;;;;;6132255;23;20018;-80
2023/07/11 00:04:23;;;;;;;10.63;6.10;;;15.70;99.90;;;;;;6129809;23;20022;-80
2023/07/11 00:06:52;;;;;;;8.32;5.97;;;15.70;99.90;;;;;;6131919;23;20386;-79
2023/07/11 00:09:21;;;;;;;9.43;6.15;;;15.70;99.90;;;;;;6131925;23;20017;-79
2023/07/11 00:11:56;;;;;;;8.10;6.07;;;15.70;99.90;;;;;;6132115;23;20017;-79
2023/07/11 00:14:28;;;;;;;7.78;6.10;;;15.70;99.90;;;;;;6131326;23;20013;-80
2023/07/11 00:16:55;;;;;;;9.67;6.07;;;15.70;99.90;;;;;;6130731;23;20013;-79
2023/07/11 00:19:24;;;;;;;8.38;6.90;;;15.70;99.90;;;;;;6131004;23;20024;-80
2023/07/11 00:21:51;;;;;;;7.97;6.40;;;15.80;99.90;;;;;;6130703;23;20067;-80
2023/07/11 00:24:18;;;;;;;9.23;5.60;;;15.80;99.90;;;;;;6129753;23;20354;-79
2023/07/11 00:26:45;;;;;;;7.97;5.90;;;15.80;99.90;;;;;;6130536;23;20092;-80
2023/07/11 00:29:19;;;;;;;9.00;5.65;;;15.90;99.90;;;;;;6131995;23;20040;-79
2023/07/11 00:31:46;;;;;;;8.75;5.90;;;15.90;99.90;;;;;;6130800;23;20013;-79
2023/07/11 00:34:13;;;;;;;7.15;5.45;;;15.90;99.90;;;;;;6134473;23;20024;-79
2023/07/11 00:36:43;;;;;;;8.55;5.38;;;15.80;99.90;;;;;;6135545;23;20024;-79
2023/07/11 00:39:12;;;;;;;10.45;6.20;;;15.90;99.90;;;;;;6135644;23;20017;-79
2023/07/11 00:41:39;;;;;;;8.73;5.45;;;15.80;99.90;;;;;;6134925;23;20018;-80
2023/07/11 00:44:16;;;;;;;8.95;5.53;;;15.90;99.90;;;;;;6134609;23;20024;-79
2023/07/11 00:46:47;;;;;;;7.95;5.25;;;15.80;99.90;;;;;;6132399;23;20009;-80
2023/07/11 00:49:16;;;;;;;9.48;5.80;;;15.90;99.90;;;;;;6131307;23;20013;-80
2023/07/11 00:51:56;;;;;;;6.97;5.63;;;15.90;99.90;;;;;;6131276;23;20017;-80
2023/07/11 00:54:31;;;;;;;9.48;5.72;;;15.90;99.90;;;;;;6130774;23;20234;-79
2023/07/11 00:57:00;;;;;;;8.90;5.40;;;15.80;99.90;;;;;;6129985;23;20056;-79
2023/07/11 00:59:30;;;;;;;8.88;5.78;;;15.80;99.90;;;;;;6129854;23;20017;-80
2023/07/11 01:02:05;;;;;;;6.80;5.28;;;15.70;99.90;;;;;;6130786;23;20013;-79
2023/07/11 01:04:42;;;;;;;10.43;5.82;;;15.70;99.90;;;;;;6129939;23;20014;-80
2023/07/11 01:07:10;;;;;;;6.53;5.85;;;15.60;99.90;;;;;;6130571;23;20450;-79
2023/07/11 01:09:39;;;;;;;8.50;5.78;;;15.60;99.90;;;;;;6130987;23;20009;-80
2023/07/11 01:12:12;;;;;;;8.25;6.18;;;15.60;99.90;;;;;;6129668;23;20336;-80
2023/07/11 01:14:44;;;;;;;9.48;6.57;;;15.50;99.90;;;;;;6129559;23;20013;-79
2023/07/11 01:17:22;;;;;;;7.13;5.93;;;15.60;99.90;;;;;;6128693;23;20018;-80
2023/07/11 01:19:52;;;;;;;8.73;5.30;;;15.50;99.90;;;;;;6130246;23;20018;-79
2023/07/11 01:22:24;;;;;;;8.40;5.63;;;15.50;99.90;;;;;;6130187;23;20014;-79
2023/07/11 01:24:56;;;;;;;9.00;6.65;;;15.40;99.90;;;;;;6129462;23;20021;-79
2023/07/11 01:27:25;;;;;;;8.93;6.35;;;15.40;99.90;;;;;;6128695;23;20021;-79
2023/07/11 01:29:58;;;;;;;8.32;5.47;;;15.30;99.90;;;;;;6129491;23;20021;-79
2023/07/11 01:32:25;;;;;;;7.72;5.82;;;15.30;99.90;;;;;;6128755;23;20016;-79
2023/07/11 01:34:52;;;;;;;8.18;5.68;;;15.30;99.90;;;;;;6129019;23;20040;-79
2023/07/11 01:37:18;;;;;;;8.85;6.32;;;15.30;99.90;;;;;;6128553;23;20017;-79
2023/07/11 01:39:45;;;;;;;8.48;6.38;;;15.30;99.90;;;;;;6129009;23;20013;-79
2023/07/11 01:42:12;;;;;;;6.93;6.03;;;15.20;99.90;;;;;;6153055;23;20021;-80
2023/07/11 01:44:39;;;;;;;7.80;6.97;;;15.20;99.90;;;;;;6137930;23;20014;-80
2023/07/11 01:47:07;;;;;;;6.55;5.80;;;15.20;99.90;;;;;;6116805;23;20043;-79
2023/07/11 01:49:34;;;;;;;9.68;7.22;;;15.10;99.90;;;;;;6138090;23;20389;-80
2023/07/11 01:52:13;;;;;;;9.05;6.57;;;15.10;99.90;;;;;;6135523;23;20044;-79
2023/07/11 01:54:43;;;;;;;8.40;6.35;;;15.00;99.90;;;;;;6136458;23;20140;-80
2023/07/11 01:57:10;;;;;;;9.05;6.63;;;15.00;99.90;;;;;;6135793;23;20017;-79
2023/07/11 01:59:38;;;;;;;9.45;6.63;;;15.00;99.90;;;;;;6135412;23;20049;-79
2023/07/11 02:02:06;;;;;;;10.60;8.35;;;14.90;99.90;;;;;;6135030;23;20049;-80
2023/07/11 02:04:33;;;;;;;10.55;8.13;;;14.90;99.90;;;;;;6135270;23;20049;-80
2023/07/11 02:07:01;;;;;;;9.77;7.45;;;14.90;99.90;;;;;;6135658;23;20069;-79
2023/07/11 02:09:29;;;;;;;8.77;7.22;;;14.90;99.90;;;;;;6135709;23;20049;-79
2023/07/11 02:11:58;;;;;;;10.57;8.15;;;14.80;99.90;;;;;;6133374;23;20370;-80
2023/07/11 02:14:24;;;;;;;8.80;7.63;;;14.80;99.90;;;;;;6158954;23;20096;-79
2023/07/11 02:16:52;;;;;;;8.65;7.72;;;14.80;99.90;;;;;;6133202;23;20072;-79
2023/07/11 02:19:20;;;;;;;8.82;7.10;;;14.80;99.90;;;;;;6133484;23;20067;-79
2023/07/11 02:21:46;;;;;;;10.27;7.65;;;14.80;99.90;;;;;;6131895;23;20024;-79
2023/07/11 02:24:17;;;;;;;10.38;7.80;;;14.80;99.90;;;;;;6131889;23;20478;-79
2023/07/11 02:26:47;;;;;;;11.70;8.05;;;14.80;99.90;;;;;;6132599;23;20011;-79
2023/07/11 02:29:15;;;;;;;11.27;8.18;;;14.70;99.90;;;;;;6132423;23;20045;-79
2023/07/11 02:31:41;;;;;;;9.40;8.43;;;14.70;99.90;;;;;;6131484;23;20485;-79
2023/07/11 02:34:10;;;;;;;9.95;8.95;;;14.60;99.90;;;;;;6156768;23;20018;-79
2023/07/11 02:36:36;;;;;;;9.80;8.80;;;14.60;99.90;;;;;;6130505;23;20022;-79
2023/07/11 02:39:02;;;;;;;8.98;8.18;;;14.60;99.90;;;;;;6131600;23;20084;-79
2023/07/11 02:41:28;;;;;;;9.93;8.93;;;14.60;99.90;;;;;;6130760;23;20446;-79
2023/07/11 02:43:54;;;;;;;12.57;10.27;;;14.50;99.90;;;;;;6130667;23;20017;-79
2023/07/11 02:46:20;;;;;;;10.85;9.10;;;14.60;99.90;;;;;;6129161;23;20032;-79
2023/07/11 02:48:46;;;;;;;11.23;10.05;;;14.50;99.90;;;;;;6130482;23;20009;-79
2023/07/11 02:51:13;;;;;;;10.98;8.82;;;14.50;99.90;;;;;;6130291;23;20021;-79
2023/07/11 02:53:40;;;;;;;10.70;8.57;;;14.40;99.90;;;;;;6132269;23;20018;-79
2023/07/11 02:56:07;;;;;;;12.48;10.48;;;14.40;99.90;;;;;;6130938;23;20017;-79
2023/07/11 02:58:34;;;;;;;8.82;7.93;;;14.40;99.90;;;;;;6132385;23;20469;-79
2023/07/11 03:01:01;;;;;;;8.73;7.68;;;14.30;99.90;;;;;;6130969;23;20446;-79
2023/07/11 03:03:28;;;;;;;10.70;9.35;;;14.30;99.90;;;;;;6131726;23;20032;-79
2023/07/11 03:05:55;;;;;;;9.55;8.60;;;14.30;99.90;;;;;;6130536;23;20398;-79
2023/07/11 03:08:22;;;;;;;10.15;8.70;;;14.30;99.90;;;;;;6130294;23;20013;-79
2023/07/11 03:10:49;;;;;;;8.98;8.10;;;14.30;99.90;;;;;;6131083;23;20014;-79
2023/07/11 03:13:17;;;;;;;9.40;8.57;;;14.30;99.90;;;;;;6132061;23;20010;-79
2023/07/11 03:15:43;;;;;;;10.10;9.18;;;14.30;99.90;;;;;;6130327;23;20014;-79
2023/07/11 03:18:10;;;;;;;11.75;10.05;;;14.30;99.90;;;;;;6131340;23;20021;-79
2023/07/11 03:20:37;;;;;;;12.07;10.35;;;14.20;99.90;;;;;;6130960;23;20014;-79
2023/07/11 03:23:03;;;;;;;12.02;9.82;;;14.20;99.90;;;;;;6131094;23;20013;-79
2023/07/11 03:25:32;;;;;;;10.13;9.13;;;14.20;99.90;;;;;;6131720;23;20100;-79
2023/07/11 03:27:59;;;;;;;10.10;9.10;;;14.20;99.90;;;;;;6131460;23;20342;-79
2023/07/11 03:30:25;;;;;;;8.73;7.88;;;14.20;99.90;;;;;;6131989;23;20013;-79
2023/07/11 03:32:52;;;;;;;10.00;9.00;;;14.20;99.90;;;;;;6106324;23;20017;-79
2023/07/11 03:35:18;;;;;;;10.63;8.95;;;14.20;99.90;;;;;;6130360;23;20188;-79
2023/07/11 03:37:44;;;;;;;11.30;10.20;;;14.10;99.90;;;;;;6130899;23;20453;-79
2023/07/11 03:40:10;;;;;;;11.60;9.85;;;14.10;99.90;;;;;;6131637;23;20092;-79
2023/07/11 03:42:36;;;;;;;14.20;12.50;;;14.10;99.90;;;;;;6131537;23;20021;-79
2023/07/11 03:45:02;;;;;;;12.13;10.88;;;14.10;99.90;;;;;;6131191;23;20028;-79
2023/07/11 03:47:28;;;;;;;10.98;9.98;;;14.10;99.90;;;;;;6130511;23;20073;-79
2023/07/11 03:50:02;;;;;;;11.52;10.50;;;14.10;99.90;;;;;;6083511;23;20458;-79
2023/07/11 03:52:29;;;;;;;17.15;14.15;;;14.10;99.90;;;;;;6132416;23;20013;-79
2023/07/11 03:54:55;;;;;;;12.40;11.20;;;14.10;99.90;;;;;;6131967;23;20024;-79
2023/07/11 03:57:21;;;;;;;11.25;10.18;;;14.10;99.90;;;;;;6131241;23;20014;-79
2023/07/11 03:59:46;;;;;;;12.35;11.15;;;14.10;99.90;;;;;;6104554;23;20014;-79
2023/07/11 04:02:12;;;;;;;15.48;13.27;;;14.10;99.90;;;;;;6129761;23;20021;-79
2023/07/11 04:04:42;;;;;;;12.85;11.50;;;14.20;99.90;;;;;;6130360;23;20048;-79
2023/07/11 04:07:10;;;;;;;13.43;12.23;;;14.20;99.90;;;;;;6128856;23;20013;-79
2023/07/11 04:09:38;;;;;;;11.52;10.50;;;14.20;99.90;;;;;;6129792;23;20041;-79
2023/07/11 04:12:05;;;;;;;15.35;12.45;;;14.30;99.90;;;;;;6129856;23;20044;-79
2023/07/11 04:14:34;;;;;;;12.45;11.35;;;14.40;99.90;;;;;;6129154;23;20071;-79
2023/07/11 04:17:00;;;;;;;14.93;13.40;;;14.40;99.90;;;;;;6128533;23;20409;-79
2023/07/11 04:19:26;;;;;;;19.98;18.02;;;14.40;99.90;;;;;;6129572;23;20114;-79
2023/07/11 04:21:55;;;;;;;15.07;13.77;;;14.50;99.90;;;;;;6129364;23;20048;-79
2023/07/11 04:24:22;;;;;;;17.88;16.17;;;14.50;99.90;;;;;;6129285;23;20014;-79
2023/07/11 04:26:48;;;;;;;18.25;16.48;;;14.60;99.90;;;;;;6128033;23;20446;-79
2023/07/11 04:29:14;;;;;;;19.27;17.67;;;14.70;99.90;;;;;;6129215;23;20009;-79
2023/07/11 04:31:43;;;;;;;18.52;16.73;;;14.80;99.90;;;;;;6129023;23;20378;-79
2023/07/11 04:34:09;;;;;;;21.33;19.50;;;14.90;99.90;;;;;;6129563;23;20013;-79
2023/07/11 04:36:35;;;;;;;19.17;17.58;;;15.00;99.90;;;;;;6134272;23;20044;-79
2023/07/11 04:39:04;;;;;;;17.83;16.13;;;15.10;99.90;;;;;;6130075;23;20458;-79
2023/07/11 04:41:30;;;;;;;18.80;17.10;;;15.20;99.90;;;;;;6130441;23;20097;-79
2023/07/11 04:43:57;;;;;;;16.77;15.07;;;15.30;99.90;;;;;;6155233;23;20022;-79
2023/07/11 04:46:23;;;;;;;18.33;15.45;;;15.50;99.90;;;;;;6129962;23;20016;-79
2023/07/11 04:48:54;;;;;;;17.90;15.77;;;15.60;99.90;;;;;;6155401;23;20332;-79
2023/07/11 04:51:20;;;;;;;16.13;14.45;;;15.70;99.90;;;;;;6130703;23;20072;-79
2023/07/11 04:53:46;;;;;;;15.27;13.85;;;15.90;99.90;;;;;;6155611;23;20386;-79
2023/07/11 04:56:13;;;;;;;15.13;13.57;;;16.20;99.90;;;;;;6105472;23;20025;-79
2023/07/11 04:58:44;;;;;;;14.77;13.30;;;16.40;99.90;;;;;;6130912;23;20017;-79
2023/07/11 05:01:18;;;;;;;14.88;13.23;;;16.50;99.90;;;;;;6131570;23;20096;-79
2023/07/11 05:03:53;;;;;;;14.00;12.50;;;16.60;99.90;;;;;;6129103;23;20096;-79
2023/07/11 05:06:21;;;;;;;16.13;13.32;;;16.70;99.90;;;;;;6129188;23;20442;-79
2023/07/11 05:08:47;;;;;;;14.80;13.30;;;16.90;99.90;;;;;;6130118;23;20020;-79
2023/07/11 05:11:16;;;;;;;13.85;12.38;;;17.50;99.90;;;;;;6128679;23;20407;-79
2023/07/11 05:13:44;;;;;;;11.25;10.25;;;18.30;99.90;;;;;;6129787;23;20096;-80
2023/07/11 05:16:16;;;;;;;11.15;9.98;;;18.90;99.90;;;;;;6128707;23;20075;-79
2023/07/11 05:18:46;;;;;;;13.30;12.10;;;19.60;99.90;;;;;;6132071;23;20013;-80
2023/07/11 05:21:19;;;;;;;11.57;10.48;;;20.00;99.90;;;;;;6131657;23;20084;-80
2023/07/11 05:23:48;;;;;;;11.68;10.57;;;20.40;99.90;;;;;;6131884;23;20018;-80
2023/07/11 05:26:19;;;;;;;11.13;9.82;;;21.00;99.90;;;;;;6131340;23;20009;-80
2023/07/11 05:28:46;;;;;;;11.95;10.95;;;21.50;99.90;;;;;;6130858;23;20031;-80
2023/07/11 05:31:12;;;;;;;9.85;8.52;;;21.70;99.90;;;;;;6130350;23;20014;-80
2023/07/11 05:33:41;;;;;;;10.18;9.15;;;21.80;99.90;;;;;;6130278;23;20020;-80
2023/07/11 05:36:54;;;;;;;11.77;8.43;;;21.80;99.90;;;;;;6128484;23;20018;-80
2023/07/11 05:38:55;;;;;;;9.18;7.30;;;22.20;99.90;;;;;;6133319;23;20092;-80
2023/07/11 05:41:20;;;;;;;10.43;7.93;;;22.70;99.90;;;;;;6130315;23;20017;-80
2023/07/11 05:43:47;;;;;;;9.93;7.75;;;23.20;99.90;;;;;;6131509;23;20024;-80
2023/07/11 05:46:15;;;;;;;9.02;7.57;;;23.60;99.90;;;;;;6129858;23;20020;-80
2023/07/11 05:48:41;;;;;;;9.50;7.32;;;23.70;99.90;;;;;;6129855;23;20044;-80
2023/07/11 05:51:09;;;;;;;9.75;6.95;;;23.70;99.90;;;;;;6129567;23;20452;-80
2023/07/11 05:53:36;;;;;;;8.18;6.93;;;23.50;99.90;;;;;;6130482;23;20070;-80
2023/07/11 05:56:04;;;;;;;11.70;7.25;;;23.20;99.90;;;;;;6130519;23;20052;-80
2023/07/11 05:58:37;;;;;;;10.70;8.00;;;23.10;99.90;;;;;;6130568;23;20041;-80
2023/07/11 06:01:06;;;;;;;9.48;7.45;;;23.30;99.90;;;;;;6128065;23;20010;-80
2023/07/11 06:03:33;;;;;;;9.02;7.93;;;23.40;99.90;;;;;;6128740;23;20127;-80
2023/07/11 06:06:04;;;;;;;9.20;7.93;;;23.30;99.90;;;;;;6130434;23;20014;-80
2023/07/11 06:08:32;;;;;;;8.63;7.60;;;22.90;99.90;;;;;;6130166;23;20454;-80
2023/07/11 06:11:12;;;;;;;;;;;;;;;;;;;;;
2023/07/11 06:13:48;;;;;;;9.85;7.65;;;22.20;99.90;;;;;;6156217;23;20097;-80
2023/07/11 06:16:22;;;;;;;9.65;7.88;;;21.90;99.90;;;;;;6130187;23;20017;-80
2023/07/11 06:18:58;;;;;;;9.63;8.07;;;21.70;99.90;;;;;;6153950;23;20461;-81
2023/07/11 06:25:11;;;;;;;9.75;7.95;;;21.30;99.90;;;;;;6149830;23;20018;-80
2023/07/11 06:27:55;;;;;;;11.00;8.25;;;21.20;99.90;;;;;;6156443;23;20085;-80
2023/07/11 06:35:07;;;;;;;9.25;8.05;;;21.10;99.90;;;;;;6065886;23;20034;-80
2023/07/11 06:38:04;;;;;;;10.70;7.57;;;21.00;99.90;;;;;;6021770;23;20188;-80
2023/07/11 06:41:25;;;;;;;10.52;8.70;;;20.90;99.90;;;;;;6111965;23;20020;-82
2023/07/11 06:44:17;;;;;;;9.65;8.32;;;21.00;99.90;;;;;;6133510;23;20024;-80
2023/07/11 06:46:54;;;;;;;9.23;8.23;;;20.90;99.90;;;;;;6131983;23;20442;-81
2023/07/11 06:49:31;;;;;;;9.43;8.02;;;20.90;99.90;;;;;;6131861;23;20114;-80
2023/07/11 06:52:12;;;;;;;9.20;8.00;;;20.90;99.90;;;;;;6133389;23;20476;-81
2023/07/11 06:54:55;;;;;;;10.60;8.32;;;20.90;99.90;;;;;;6136273;23;20017;-81
2023/07/11 06:57:27;;;;;;;8.88;7.63;;;20.90;99.90;;;;;;6128272;23;20028;-81
2023/07/11 07:00:20;;;;;;;10.32;7.50;;;20.90;99.90;;;;;;6133558;23;20030;-81
2023/07/11 07:02:52;;;;;;;9.30;7.45;;;21.00;99.90;;;;;;6126971;23;20018;-81
2023/07/11 07:05:29;;;;;;;9.95;7.00;;;21.20;99.90;;;;;;6127766;23;20370;-80
2023/07/11 07:08:10;;;;;;;8.80;7.15;;;21.30;99.90;;;;;;6127042;23;20020;-81
2023/07/11 07:10:36;;;;;;;7.50;6.25;;;21.40;99.90;;;;;;6128184;23;20338;-80
2023/07/11 07:13:17;;;;;;;8.60;6.38;;;21.50;99.90;;;;;;6127358;23;20013;-81
2023/07/11 07:15:53;;;;;;;8.52;6.30;;;21.60;99.90;;;;;;6128600;23;20020;-81
2023/07/11 07:18:32;;;;;;;;;;;21.70;99.90;;;;;;6127648;23;20013;-80
2023/07/11 07:25:23;;;;;;;8.48;5.65;;;22.10;99.90;;;;;;6107927;23;20022;-79
2023/07/11 07:30:58;;;;;;;9.48;5.38;;;22.40;99.90;;;;;;6155870;23;20449;-79
2023/07/11 07:33:29;;;;;;;9.00;5.10;;;22.50;99.90;;;;;;6129273;23;20469;-79
2023/07/11 07:36:04;;;;;;;7.18;4.80;;;22.60;99.90;;;;;;6129987;23;20013;-80
2023/07/11 07:38:43;;;;;;;7.53;5.13;;;22.80;99.90;;;;;;6131086;23;20019;-79
2023/07/11 07:41:20;;;;;;;;;;;;;;;;;;;;;
2023/07/11 07:43:59;;;;;;;;;;;23.20;99.90;;;;;;6156652;23;20040;-79
2023/07/11 07:46:25;;;;;;;7.25;4.97;;;23.40;99.90;;;;;;6131788;23;19913;-79
2023/07/11 07:48:52;;;;;;;7.95;4.82;;;23.60;99.90;;;;;;6130880;23;20458;-79
2023/07/11 07:51:30;;;;;;;6.72;4.30;;;23.70;99.90;;;;;;6132805;23;20041;-79
2023/07/11 07:54:00;;;;;;;21.67;4.90;;;24.10;99.90;;;;;;6157445;23;20018;-80
2023/07/11 07:56:28;;;;;;;6.53;3.90;;;24.70;99.90;;;;;;6108020;23;20018;-79
2023/07/11 07:59:31;;;;;;;5.78;3.35;;;25.50;99.90;;;;;;6157953;23;20092;-79
2023/07/11 08:02:13;;;;;;;8.02;3.38;;;26.40;99.90;;;;;;6134622;23;20060;-80
2023/07/11 08:04:47;;;;;;;5.43;2.90;;;26.90;99.90;;;;;;6108294;23;20053;-80
2023/07/11 08:07:23;;;;;;;6.50;2.70;;;27.50;97.40;;;;;;6108709;23;20053;-80
2023/07/11 08:10:07;;;;;;;6.75;2.80;;;28.00;77.60;;;;;;6135308;23;20072;-80
2023/07/11 08:12:49;;;;;;;5.18;2.33;;;28.50;93.70;;;;;;6134346;23;20024;-81
2023/07/11 08:15:21;;;;;;;8.57;2.80;;;28.90;72.80;;;;;;6132608;23;20069;-81
2023/07/11 08:18:01;;;;;;;5.22;2.55;;;29.20;71.00;;;;;;6132063;23;20017;-81
2023/07/11 08:20:50;;;;;;;5.28;2.50;;;29.50;69.00;;;;;;6158319;23;20405;-80
2023/07/11 08:24:08;;;;;;;6.70;2.40;;;29.80;65.40;;;;;;6137485;23;20071;-80
2023/07/11 08:26:51;;;;;;;6.53;2.47;;;30.00;64.20;;;;;;6117055;23;20066;-80
2023/07/11 08:29:21;;;;;;;5.20;2.33;;;30.30;63.20;;;;;;6132960;23;20328;-80
2023/07/11 08:32:21;;;;;;;5.75;2.60;;;30.30;63.30;;;;;;6134726;23;20021;-80
2023/07/11 08:37:55;;;;;;;7.18;2.40;;;30.40;63.10;;;;;;6155189;23;20479;-80
2023/07/11 08:41:01;;;;;;;6.18;2.53;;;30.80;62.80;;;;;;6186120;23;20028;-80
2023/07/11 08:43:57;;;;;;;8.50;2.70;;;31.00;62.20;;;;;;6133824;23;20373;-80
2023/07/11 08:49:58;;;;;;;5.60;2.33;;;31.10;57.60;;;;;;6101292;23;20073;-81
2023/07/11 08:52:37;;;;;;;5.32;2.00;;;30.90;56.80;;;;;;6179079;23;20441;-77
2023/07/11 08:55:10;;;;;;;4.45;2.40;;;30.90;58.60;;;;;;6159960;23;20147;-78
2023/07/11 08:57:43;;;;;;;3.63;2.13;;;31.10;59.80;;;;;;6159110;23;20013;-78
2023/07/11 09:00:15;;;;;;;4.45;2.30;;;31.20;58.30;;;;;;6184922;23;20075;-79
2023/07/11 09:02:51;;;;;;;6.35;2.50;;;31.50;59.10;;;;;;6134375;23;20049;-77
2023/07/11 09:05:40;;;;;;;5.03;2.35;;;31.80;58.80;;;;;;6154899;23;20327;-78
2023/07/11 09:08:11;;;;;;;7.85;2.30;;;31.80;53.90;;;;;;6136286;23;20449;-78
2023/07/11 09:11:02;;;;;;;5.65;2.45;;;31.80;59.10;;;;;;6129291;23;20014;-78
2023/07/11 09:13:51;;;;;;;4.75;2.47;;;31.70;56.90;;;;;;6154046;23;20013;-78
2023/07/11 09:16:40;;;;;;;5.15;2.70;;;31.70;57.10;;;;;;6153552;23;20013;-77
2023/07/11 09:19:30;;;;;;;4.25;2.30;;;31.90;57.90;;;;;;6128352;23;20009;-77
2023/07/11 09:22:48;;;;;;;4.47;2.25;;;32.20;59.50;;;;;;6153202;23;20018;-77
2023/07/11 09:25:18;;;;;;;6.40;2.47;;;32.50;58.80;;;;;;6090056;23;20343;-77
2023/07/11 09:27:56;;;;;;;4.30;2.25;;;32.50;56.90;;;;;;6129356;23;20077;-77
2023/07/11 09:30:34;;;;;;;6.35;2.10;;;32.60;56.30;;;;;;6128821;23;20025;-77
2023/07/11 09:33:18;;;;;;;4.70;2.20;;;32.80;57.10;;;;;;6129362;23;20017;-78
2023/07/11 09:35:54;;;;;;;4.40;2.25;;;33.10;54.20;;;;;;6154235;23;20069;-77
2023/07/11 09:38:43;;;;;;;6.20;2.40;;;33.00;54.60;;;;;;6154442;23;20010;-77
2023/07/11 09:41:15;;;;;;;4.43;1.85;;;33.10;52.60;;;;;;6152915;23;20323;-77
2023/07/11 09:43:41;;;;;;;4.18;2.40;;;33.10;55.10;;;;;;6152622;23;20005;-77
2023/07/11 09:46:20;;;;;;;6.03;2.40;;;33.10;53.20;;;;;;6152860;23;20152;-78
2023/07/11 09:48:50;;;;;;;5.65;2.40;;;33.00;53.50;;;;;;6152222;23;20005;-77
2023/07/11 09:51:30;;;;;;;4.80;2.38;;;33.00;57.20;;;;;;6153356;23;20024;-78
2023/07/11 09:53:56;;;;;;;4.47;2.30;;;33.30;56.70;;;;;;6153548;23;20469;-78
2023/07/11 09:56:24;;;;;;;4.85;1.98;;;33.60;55.30;;;;;;6153085;23;20049;-77
2023/07/11 09:58:53;;;;;;;6.07;2.10;;;33.50;53.20;;;;;;6153796;23;20041;-78
2023/07/11 10:01:37;;;;;;;5.78;2.30;;;33.60;55.90;;;;;;6152971;23;20013;-78
2023/07/11 10:04:07;;;;;;;4.90;2.10;;;33.60;51.80;;;;;;6154313;23;20013;-77
2023/07/11 10:06:41;;;;;;;7.40;2.38;;;33.60;53.60;;;;;;6154612;23;20032;-77
2023/07/11 10:09:27;;;;;;;4.57;1.92;;;33.70;54.40;;;;;;6154457;23;20133;-78
2023/07/11 10:11:55;;;;;;;4.15;2.00;;;33.90;53.20;;;;;;6152799;23;20022;-77
2023/07/11 10:14:25;;;;;;;5.82;2.15;;;33.90;52.50;;;;;;6153354;23;20340;-78
2023/07/11 10:16:51;;;;;;;3.70;1.90;;;33.70;51.10;;;;;;6153531;23;20469;-78
2023/07/11 10:19:17;;;;;;;5.18;2.00;;;33.60;54.20;;;;;;6153479;23;20017;-78
2023/07/11 10:21:46;;;;;;;2.88;1.75;;;33.50;54.10;;;;;;6152685;23;20028;-77
2023/07/11 10:24:24;;;;;;;4.00;1.70;;;33.40;53.50;;;;;;6150793;23;20516;-77
2023/07/11 10:26:57;;;;;;;4.90;2.08;;;33.50;54.50;;;;;;6151568;23;20439;-78
2023/07/11 10:29:27;;;;;;;5.30;1.83;;;33.80;54.60;;;;;;6152535;23;20390;-79
2023/07/11 10:32:02;;;;;;;5.07;1.60;;;34.10;54.30;;;;;;6128791;23;20010;-78
2023/07/11 10:34:49;;;;;;;4.50;1.83;;;34.50;54.10;;;;;;6153793;23;20017;-78
2023/07/11 10:37:29;;;;;;;4.47;1.83;;;34.70;54.90;;;;;;6153193;23;20092;-78
2023/07/11 10:40:27;;;;;;;4.60;2.08;;;34.70;52.30;;;;;;6153299;23;20045;-78
2023/07/11 10:43:19;;;;;;;3.25;1.73;;;34.50;53.60;;;;;;6152414;23;20017;-77
2023/07/11 10:45:47;;;;;;;5.30;1.60;;;34.40;54.40;;;;;;6151384;23;20018;-77
2023/07/11 10:48:34;;;;;;;6.28;2.10;;;34.40;54.40;;;;;;6151829;23;20072;-78
2023/07/11 10:51:14;;;;;;;4.55;2.00;;;34.70;54.00;;;;;;6152718;23;20010;-78
2023/07/11 10:53:42;;;;;;;4.53;2.20;;;35.00;52.30;;;;;;6129836;23;20037;-78
2023/07/11 10:56:21;;;;;;;4.50;2.00;;;35.20;53.80;;;;;;6129582;23;20036;-78
2023/07/11 10:58:48;;;;;;;4.57;2.10;;;35.50;52.60;;;;;;6129446;23;20009;-78
2023/07/11 11:01:32;;;;;;;4.25;2.20;;;35.70;51.30;;;;;;6127931;23;20461;-78
2023/07/11 11:04:25;;;;;;;4.75;1.98;;;35.80;51.70;;;;;;6129642;23;20013;-77
2023/07/11 11:07:11;;;;;;;4.60;2.00;;;35.90;51.40;;;;;;6127598;23;20456;-78
2023/07/11 11:10:06;;;;;;;3.33;1.75;;;36.20;51.70;;;;;;6129126;23;20499;-78
2023/07/11 11:12:45;;;;;;;4.50;1.80;;;36.20;50.90;;;;;;6128655;23;20013;-78
2023/07/11 11:15:30;;;;;;;4.55;2.25;;;36.00;50.80;;;;;;6131445;23;20014;-79
2023/07/11 11:18:23;;;;;;;4.68;2.00;;;35.70;49.60;;;;;;6132535;23;20020;-79
2023/07/11 11:21:33;;;;;;;7.82;2.20;;;35.50;49.80;;;;;;6130545;23;20021;-78
2023/07/11 11:24:05;;;;;;;7.78;2.60;;;35.40;50.80;;;;;;6132306;23;20021;-80
2023/07/11 11:26:37;;;;;;;5.32;2.20;;;35.50;51.40;;;;;;6129385;23;20083;-80
2023/07/11 11:29:51;;;;;;;4.43;2.20;;;35.70;50.60;;;;;;6129175;23;20010;-78
2023/07/11 11:32:44;;;;;;;5.53;2.50;;;35.50;52.70;;;;;;6130969;23;20014;-79
2023/07/11 11:35:48;;;;;;;7.00;2.97;;;35.50;51.70;;;;;;6127135;23;20044;-80
2023/07/11 11:38:24;;;;;;;4.82;2.13;;;35.60;48.40;;;;;;6105593;23;20025;-79
2023/07/11 11:40:55;;;;;;;5.30;2.20;;;35.30;51.20;;;;;;6105709;23;20449;-78
2023/07/11 11:43:24;;;;;;;4.63;2.05;;;35.20;48.40;;;;;;6129830;23;20017;-80
2023/07/11 11:45:51;;;;;;;4.57;2.10;;;35.20;50.90;;;;;;6129068;23;20018;-79
2023/07/11 11:48:21;;;;;;;4.75;2.10;;;35.40;50.20;;;;;;6130067;23;20014;-79
2023/07/11 11:50:48;;;;;;;5.47;2.15;;;35.70;49.90;;;;;;6130095;23;20009;-79
2023/07/11 11:53:46;;;;;;;4.07;1.92;;;35.80;46.30;;;;;;6131162;23;20326;-79
2023/07/11 11:56:20;;;;;;;5.70;2.22;;;35.80;48.20;;;;;;6130191;23;20461;-79
2023/07/11 11:58:52;;;;;;;3.92;2.17;;;35.80;50.20;;;;;;6130224;23;20017;-79
2023/07/11 12:01:50;;;;;;;5.23;2.40;;;36.00;50.70;;;;;;6129952;23;20014;-79
2023/07/11 12:04:31;;;;;;;5.28;2.33;;;36.10;50.20;;;;;;6129791;23;20021;-79
2023/07/11 12:07:12;;;;;;;6.47;2.53;;;36.30;49.10;;;;;;6105921;23;20342;-79
2023/07/11 12:09:45;;;;;;;5.22;2.65;;;36.20;49.40;;;;;;6129621;23;20041;-79
2023/07/11 12:12:14;;;;;;;5.57;2.10;;;36.00;50.90;;;;;;6131181;23;20017;-79
2023/07/11 12:14:52;;;;;;;4.13;2.22;;;36.10;49.70;;;;;;6128567;23;20017;-79
2023/07/11 12:17:33;;;;;;;4.55;2.30;;;36.20;46.40;;;;;;6129243;23;20074;-79
2023/07/11 12:20:10;;;;;;;4.60;2.38;;;36.10;46.60;;;;;;6130234;23;20013;-79
2023/07/11 12:22:39;;;;;;;6.13;2.30;;;35.60;47.40;;;;;;6130623;23;20032;-79
2023/07/11 12:25:20;;;;;;;4.45;2.25;;;35.40;50.10;;;;;;6105152;23;20469;-79
2023/07/11 12:27:49;;;;;;;3.67;2.20;;;35.80;51.50;;;;;;6129484;23;20009;-79
2023/07/11 12:30:26;;;;;;;5.47;2.60;;;36.20;51.30;;;;;;6130792;23;20252;-79
2023/07/11 12:33:21;;;;;;;4.90;2.40;;;36.30;50.40;;;;;;6130825;23;20017;-79
2023/07/11 12:36:07;;;;;;;7.53;2.50;;;36.40;50.60;;;;;;6114223;23;20072;-79
2023/07/11 12:38:40;;;;;;;4.93;2.78;;;36.30;50.40;;;;;;6130412;23;20021;-79
2023/07/11 12:41:12;;;;;;;5.07;2.22;;;35.90;50.50;;;;;;6104751;23;20017;-77
2023/07/11 12:43:40;;;;;;;6.03;2.30;;;35.60;51.10;;;;;;6127436;23;20473;-77
2023/07/11 12:46:23;;;;;;;12.45;2.80;;;35.50;51.30;;;;;;6128382;23;20021;-77
2023/07/11 12:48:50;;;;;;;4.28;2.38;;;35.40;53.10;;;;;;6128996;23;20014;-78
2023/07/11 12:51:26;;;;;;;4.03;2.17;;;35.40;51.30;;;;;;6131324;23;20381;-77
2023/07/11 12:53:57;;;;;;;5.95;2.50;;;35.50;51.10;;;;;;6151343;23;20025;-77
2023/07/11 12:56:23;;;;;;;5.13;2.50;;;35.70;52.60;;;;;;6153171;23;20014;-78
2023/07/11 12:58:49;;;;;;;3.70;2.30;;;35.90;53.20;;;;;;6153635;23;20409;-78
2023/07/11 13:01:15;;;;;;;4.28;2.25;;;35.80;51.00;;;;;;6153801;23;20013;-78
2023/07/11 13:03:41;;;;;;;5.47;1.90;;;35.60;52.10;;;;;;6153399;23;20524;-78
2023/07/11 13:06:29;;;;;;;5.72;2.10;;;35.10;51.50;;;;;;6151646;23;20018;-78
2023/07/11 13:08:57;;;;;;;3.83;1.98;;;34.60;52.50;;;;;;6151925;23;20009;-78
2023/07/11 13:11:30;;;;;;;5.15;2.30;;;34.30;53.20;;;;;;6153210;23;20020;-78
2023/07/11 13:13:56;;;;;;;5.47;2.65;;;34.40;54.50;;;;;;6128109;23;20005;-78
2023/07/11 13:16:26;;;;;;;4.55;2.28;;;34.70;54.40;;;;;;6153132;23;20010;-77
2023/07/11 13:18:52;;;;;;;6.40;2.85;;;35.10;53.60;;;;;;6152559;23;20013;-78
2023/07/11 13:21:19;;;;;;;5.97;2.30;;;35.30;51.30;;;;;;6153296;23;20013;-78
2023/07/11 13:23:46;;;;;;;5.55;2.28;;;35.60;52.30;;;;;;6153024;23;20069;-79
2023/07/11 13:26:27;;;;;;;4.45;2.10;;;35.80;51.70;;;;;;6154786;23;20005;-79
2023/07/11 13:29:18;;;;;;;3.83;2.00;;;36.00;51.10;;;;;;6153819;23;20346;-77
2023/07/11 13:31:46;;;;;;;5.10;2.38;;;35.70;51.00;;;;;;6155188;23;20060;-78
2023/07/11 13:34:15;;;;;;;4.55;2.00;;;35.10;51.40;;;;;;6154470;23;20010;-79
2023/07/11 13:36:44;;;;;;;6.93;2.47;;;34.90;53.50;;;;;;6154622;23;20398;-78
2023/07/11 13:39:15;;;;;;;5.00;2.17;;;35.00;53.50;;;;;;6133279;23;20016;-78
2023/07/11 13:41:46;;;;;;;4.72;2.20;;;34.90;52.50;;;;;;6155505;23;20017;-79